createdAt,value
2019-05-02T00:01:38.411Z,81.87
2019-05-02T00:04:06.615Z,81.77
2019-05-02T00:06:38.112Z,82.60
2019-05-02T00:09:09.261Z,82.33
2019-05-02T00:11:34.332Z,81.90
2019-05-02T00:14:01.968Z,81.79
2019-05-02T00:16:29.624Z,82.00
2019-05-02T00:18:57.287Z,82.48
2019-05-02T00:21:24.953Z,82.62
2019-05-02T00:23:52.616Z,82.81
2019-05-02T00:26:24.649Z,83.80
2019-05-02T00:28:49.915Z,83.60
2019-05-02T00:31:19.519Z,83.05
2019-05-02T00:33:47.171Z,83.05
2019-05-02T00:36:14.833Z,83.15
2019-05-02T00:38:42.521Z,83.22
2019-05-02T00:41:10.183Z,83.10
2019-05-02T00:43:38.176Z,82.93
2019-05-02T00:46:05.853Z,83.58
2019-05-02T00:48:38.375Z,83.75
2019-05-02T00:51:06.224Z,83.94
2019-05-02T00:53:33.875Z,83.59
2019-05-02T00:56:05.040Z,83.70
2019-05-02T00:58:31.896Z,83.76
2019-05-02T01:01:16.491Z,84.67
2019-05-02T01:03:47.099Z,84.59
2019-05-02T01:06:15.600Z,84.25
2019-05-02T01:08:43.463Z,84.05
2019-05-02T01:11:11.179Z,84.30
2019-05-02T01:13:38.828Z,84.45
2019-05-02T01:16:06.497Z,84.61
2019-05-02T01:18:37.206Z,83.44
2019-05-02T01:21:04.197Z,84.00
2019-05-02T01:23:31.914Z,85.32
2019-05-02T01:25:59.564Z,85.33
2019-05-02T01:28:32.508Z,85.73
2019-05-02T01:31:08.494Z,85.97
2019-05-02T01:33:43.463Z,86.62
2019-05-02T01:36:15.563Z,87.18
2019-05-02T01:38:46.493Z,86.46
2019-05-02T01:41:14.207Z,87.64
2019-05-02T01:43:41.943Z,87.52
2019-05-02T01:46:09.583Z,87.30
2019-05-02T01:48:40.073Z,87.42
2019-05-02T01:51:10.538Z,87.11
2019-05-02T01:53:36.039Z,87.49
2019-05-02T01:56:03.856Z,87.43
2019-05-02T01:58:31.509Z,86.96
2019-05-02T02:00:59.154Z,87.04
2019-05-02T02:03:27.028Z,86.80
2019-05-02T02:05:54.706Z,86.98
2019-05-02T02:08:22.453Z,87.15
2019-05-02T02:10:50.511Z,87.29
2019-05-02T02:13:19.524Z,87.41
2019-05-02T02:15:47.163Z,87.61
2019-05-02T02:18:16.208Z,87.25
2019-05-02T02:20:53.435Z,87.54
2019-05-02T02:23:36.845Z,87.33
2019-05-02T02:26:11.909Z,87.47
2019-05-02T02:28:36.616Z,86.68
2019-05-02T02:31:07.459Z,86.56
2019-05-02T02:33:33.647Z,86.95
2019-05-02T02:36:01.349Z,87.04
2019-05-02T02:38:33.725Z,87.06
2019-05-02T02:40:58.472Z,86.66
2019-05-02T02:43:34.218Z,86.64
2019-05-02T02:46:06.781Z,86.63
2019-05-02T02:48:40.671Z,86.79
2019-05-02T02:51:04.096Z,87.78
2019-05-02T02:53:32.046Z,87.43
2019-05-02T02:56:02.031Z,86.73
2019-05-02T02:58:29.102Z,86.53
2019-05-02T03:00:56.743Z,86.59
2019-05-02T03:03:27.736Z,86.83
2019-05-02T03:05:58.838Z,86.73
2019-05-02T03:08:23.338Z,87.03
2019-05-02T03:10:51.057Z,87.47
2019-05-02T03:13:52.356Z,87.22
2019-05-02T03:16:17.380Z,88.08
2019-05-02T03:18:45.037Z,87.79
2019-05-02T03:21:13.552Z,87.40
2019-05-02T03:23:42.071Z,87.04
2019-05-02T03:26:14.815Z,86.39
2019-05-02T03:28:39.073Z,85.82
2019-05-02T03:31:21.654Z,85.26
2019-05-02T03:33:51.922Z,85.22
2019-05-02T03:36:05.428Z,85.09
2019-05-02T03:38:35.215Z,85.11
2019-05-02T03:41:02.473Z,84.82
2019-05-02T03:43:30.126Z,84.63
2019-05-02T03:45:57.979Z,84.48
2019-05-02T03:48:27.802Z,84.34
2019-05-02T03:50:55.044Z,84.38
2019-05-02T03:53:24.974Z,83.19
2019-05-02T03:55:52.084Z,82.77
2019-05-02T03:58:19.894Z,82.36
2019-05-02T04:00:47.717Z,82.05
2019-05-02T04:03:15.395Z,82.37
2019-05-02T04:05:43.056Z,82.28
2019-05-02T04:08:19.765Z,81.92
2019-05-02T04:10:40.130Z,81.56
2019-05-02T04:13:07.899Z,80.49
2019-05-02T04:15:37.543Z,80.13
2019-05-02T04:18:08.369Z,80.29
2019-05-02T04:20:34.337Z,80.34
2019-05-02T04:23:02.233Z,80.75
2019-05-02T04:25:34.041Z,80.64
2019-05-02T04:27:59.319Z,80.56
2019-05-02T04:30:26.975Z,80.78
2019-05-02T04:32:55.809Z,80.85
2019-05-02T04:35:28.791Z,80.80
2019-05-02T04:37:53.243Z,81.03
2019-05-02T04:40:20.919Z,80.78
2019-05-02T04:42:53.515Z,80.67
2019-05-02T04:45:28.173Z,80.74
2019-05-02T04:47:54.540Z,80.08
2019-05-02T04:50:18.459Z,80.44
2019-05-02T04:52:52.488Z,80.09
2019-05-02T04:55:26.068Z,79.72
2019-05-02T04:57:50.430Z,79.72
2019-05-02T05:00:14.474Z,78.91
2019-05-02T05:02:42.189Z,79.40
2019-05-02T05:05:09.964Z,79.04
2019-05-02T05:07:40.966Z,79.60
2019-05-02T05:10:08.392Z,79.21
2019-05-02T05:12:40.086Z,79.11
2019-05-02T05:15:07.824Z,78.87
2019-05-02T05:17:35.080Z,78.96
2019-05-02T05:20:10.696Z,78.55
2019-05-02T05:22:36.601Z,79.34
2019-05-02T05:25:07.460Z,78.67
2019-05-02T05:27:35.309Z,78.18
2019-05-02T05:30:09.351Z,78.90
2019-05-02T05:32:32.344Z,78.32
2019-05-02T05:35:03.332Z,77.49
2019-05-02T05:37:29.575Z,77.98
2019-05-02T05:39:58.044Z,78.46
2019-05-02T05:42:30.172Z,77.96
2019-05-02T05:44:55.267Z,77.13
2019-05-02T05:47:22.903Z,77.81
2019-05-02T05:49:52.422Z,77.38
2019-05-02T05:52:19.995Z,75.55
2019-05-02T05:54:47.710Z,75.57
2019-05-02T05:57:17.462Z,75.82
2019-05-02T05:59:44.932Z,75.98
2019-05-02T06:02:14.586Z,75.54
2019-05-02T06:04:41.956Z,74.46
2019-05-02T06:07:09.699Z,74.53
2019-05-02T06:09:37.349Z,74.41
2019-05-02T06:12:05.001Z,74.67
2019-05-02T06:14:34.421Z,70.68
2019-05-02T06:17:02.172Z,70.60
2019-05-02T06:19:29.907Z,70.00
2019-05-02T06:21:57.556Z,70.59
2019-05-02T06:24:25.528Z,70.13
2019-05-02T06:26:53.247Z,69.14
2019-05-02T06:29:21.099Z,69.16
2019-05-02T06:31:48.862Z,67.56
2019-05-02T06:34:16.513Z,67.58
2019-05-02T06:36:44.174Z,67.70
2019-05-02T06:39:11.823Z,68.36
2019-05-02T06:41:39.537Z,67.44
2019-05-02T06:44:10.107Z,67.29
2019-05-02T06:46:36.604Z,66.90
2019-05-02T06:49:04.270Z,67.89
2019-05-02T06:51:31.944Z,66.19
2019-05-02T06:53:59.635Z,64.63
2019-05-02T06:56:27.292Z,66.28
2019-05-02T06:58:54.974Z,65.19
2019-05-02T07:01:22.938Z,65.63
2019-05-02T07:03:50.757Z,65.61
2019-05-02T07:06:18.724Z,64.57
2019-05-02T07:08:46.767Z,62.55
2019-05-02T07:11:14.524Z,64.83
2019-05-02T07:13:43.810Z,62.78
2019-05-02T07:16:38.415Z,62.68
2019-05-02T07:19:10.727Z,62.57
2019-05-02T07:21:38.394Z,63.10
2019-05-02T07:24:06.084Z,63.97
2019-05-02T07:26:33.748Z,62.99
2019-05-02T07:29:01.396Z,62.95
2019-05-02T07:31:29.176Z,62.74
2019-05-02T07:33:56.830Z,63.29
2019-05-02T07:36:24.508Z,62.45
2019-05-02T07:38:52.296Z,63.16
2019-05-02T07:41:24.136Z,61.81
2019-05-02T07:43:52.144Z,61.91
2019-05-02T07:46:21.031Z,61.36
2019-05-02T07:48:48.953Z,61.92
2019-05-02T07:51:21.310Z,62.97
2019-05-02T07:53:48.554Z,64.15
2019-05-02T07:56:17.772Z,62.34
2019-05-02T07:58:47.955Z,63.63
2019-05-02T08:01:15.314Z,62.54
2019-05-02T08:03:43.216Z,62.98
2019-05-02T08:06:11.077Z,62.41
2019-05-02T08:08:38.772Z,61.73
2019-05-02T08:11:06.433Z,62.65
2019-05-02T08:13:34.087Z,62.63
2019-05-02T08:18:30.391Z,60.72
2019-05-02T08:20:57.432Z,61.76
2019-05-02T08:23:25.770Z,64.01
2019-05-02T08:25:54.599Z,63.12
2019-05-02T08:28:27.883Z,60.91
2019-05-02T08:30:57.295Z,59.55
2019-05-02T08:33:29.124Z,60.73
2019-05-02T08:35:54.319Z,58.26
2019-05-02T08:38:21.976Z,60.08
2019-05-02T08:40:49.753Z,59.63
2019-05-02T08:43:17.611Z,59.01
2019-05-02T08:45:45.268Z,58.62
2019-05-02T08:48:12.921Z,58.00
2019-05-02T08:50:40.595Z,58.18
2019-05-02T08:53:08.319Z,56.50
2019-05-02T08:55:36.293Z,58.02
2019-05-02T08:58:06.751Z,57.66
2019-05-02T09:00:37.582Z,59.02
2019-05-02T09:03:04.612Z,56.92
2019-05-02T09:05:36.356Z,57.31
2019-05-02T09:08:01.656Z,57.33
2019-05-02T09:10:29.459Z,57.59
2019-05-02T09:12:57.116Z,58.15
2019-05-02T09:15:24.784Z,57.52
2019-05-02T09:17:56.287Z,56.73
2019-05-02T09:20:23.700Z,56.53
2019-05-02T09:22:55.695Z,55.73
2019-05-02T09:25:21.979Z,55.54
2019-05-02T09:27:49.820Z,54.96
2019-05-02T09:30:22.857Z,54.72
2019-05-02T09:32:46.904Z,56.27
2019-05-02T09:35:14.628Z,54.88
2019-05-02T09:37:42.374Z,55.72
2019-05-02T09:40:15.004Z,53.49
2019-05-02T09:42:39.562Z,54.37
2019-05-02T09:45:09.099Z,54.18
2019-05-02T09:47:52.799Z,54.31
2019-05-02T09:50:09.933Z,53.53
2019-05-02T09:52:39.530Z,55.99
2019-05-02T09:55:07.224Z,55.89
2019-05-02T09:57:34.911Z,54.88
2019-05-02T10:00:02.914Z,54.59
2019-05-02T10:02:32.440Z,53.51
2019-05-02T10:05:01.686Z,54.24
2019-05-02T10:07:29.740Z,53.69
2019-05-02T10:09:57.616Z,55.53
2019-05-02T10:12:26.862Z,54.02
2019-05-02T10:14:54.538Z,54.71
2019-05-02T10:17:23.115Z,52.46
2019-05-02T10:19:54.969Z,52.56
2019-05-02T10:22:20.367Z,53.94
2019-05-02T10:24:48.148Z,53.37
2019-05-02T10:27:15.810Z,52.99
2019-05-02T10:29:43.472Z,53.01
2019-05-02T10:32:15.024Z,51.69
2019-05-02T10:34:42.236Z,53.63
2019-05-02T10:37:12.240Z,53.31
2019-05-02T10:39:39.416Z,55.03
2019-05-02T10:42:07.073Z,52.82
2019-05-02T10:44:36.542Z,52.85
2019-05-02T10:47:04.328Z,50.73
2019-05-02T10:49:42.964Z,51.94
2019-05-02T10:52:12.252Z,52.61
2019-05-02T10:54:42.034Z,53.79
2019-05-02T10:57:09.740Z,52.20
2019-05-02T10:59:37.403Z,52.57
2019-05-02T11:02:16.623Z,52.15
2019-05-02T11:04:48.356Z,52.72
2019-05-02T11:07:17.159Z,51.62
2019-05-02T11:09:45.734Z,53.28
2019-05-02T11:12:21.131Z,54.07
2019-05-02T11:14:51.815Z,54.12
2019-05-02T11:17:26.657Z,52.21
2019-05-02T11:19:57.915Z,51.21
2019-05-02T11:22:25.576Z,53.18
2019-05-02T11:24:53.238Z,50.83
2019-05-02T11:27:22.124Z,51.58
2019-05-02T11:29:49.936Z,52.58
2019-05-02T11:32:17.612Z,50.81
2019-05-02T11:34:45.571Z,51.37
2019-05-02T11:37:13.570Z,48.79
2019-05-02T11:39:46.197Z,51.56
2019-05-02T11:42:12.375Z,50.22
2019-05-02T11:47:05.997Z,49.43
2019-05-02T11:49:33.711Z,50.41
2019-05-02T11:52:04.330Z,51.18
2019-05-02T11:54:31.987Z,51.71
2019-05-02T11:59:28.099Z,50.53
2019-05-02T12:04:32.473Z,49.71
2019-05-02T12:07:01.482Z,48.64
2019-05-02T12:09:29.585Z,48.33
2019-05-02T12:11:57.235Z,47.53
2019-05-02T12:14:27.505Z,48.31
2019-05-02T12:16:54.845Z,47.02
2019-05-02T12:21:48.437Z,47.70
2019-05-02T12:24:16.123Z,46.58
2019-05-02T12:29:09.808Z,46.66
2019-05-02T12:31:37.490Z,46.42
2019-05-02T12:36:33.126Z,45.77
2019-05-02T12:39:02.412Z,47.49
2019-05-02T12:41:30.001Z,46.85
2019-05-02T12:43:57.791Z,47.18
2019-05-02T12:48:52.136Z,45.76
2019-05-02T12:51:19.999Z,45.14
2019-05-02T12:56:13.602Z,45.79
2019-05-02T13:01:07.210Z,46.38
2019-05-02T13:06:07.337Z,46.92
2019-05-02T13:08:38.041Z,45.67
2019-05-02T13:11:14.301Z,45.33
2019-05-02T13:13:42.101Z,45.33
2019-05-02T13:16:12.040Z,44.88
2019-05-02T13:18:39.337Z,44.76
2019-05-02T13:23:44.784Z,45.40
2019-05-02T13:28:38.384Z,45.87
2019-05-02T13:33:39.844Z,43.45
2019-05-02T13:38:33.517Z,43.42
2019-05-02T13:41:02.599Z,44.64
2019-05-02T13:43:36.018Z,44.61
2019-05-02T13:48:35.618Z,43.92
2019-05-02T13:51:03.930Z,42.89
2019-05-02T13:58:47.572Z,41.17
2019-05-02T14:06:08.073Z,40.72
2019-05-02T14:11:17.312Z,41.00
2019-05-02T14:16:12.175Z,41.09
2019-05-02T14:18:42.013Z,41.23
2019-05-02T14:23:35.272Z,41.44
2019-05-02T14:26:03.256Z,42.44
2019-05-02T14:28:32.336Z,41.10
2019-05-02T14:31:02.139Z,42.27
2019-05-02T14:35:55.644Z,41.92
2019-05-02T14:38:23.300Z,41.16
2019-05-02T14:46:02.950Z,42.07
2019-05-02T14:48:34.504Z,42.22
2019-05-02T14:51:01.782Z,42.25
2019-05-02T14:53:29.594Z,41.83
2019-05-02T14:58:23.201Z,43.50
2019-05-02T15:00:52.888Z,42.57
2019-05-02T15:03:24.581Z,43.02
2019-05-02T15:05:50.225Z,43.31
2019-05-02T15:08:17.883Z,42.94
2019-05-02T15:10:52.385Z,43.53
2019-05-02T15:13:14.923Z,42.34
2019-05-02T15:15:43.484Z,42.37
2019-05-02T15:18:13.403Z,42.90
2019-05-02T15:20:42.386Z,43.74
2019-05-02T15:23:14.425Z,44.11
2019-05-02T15:25:39.738Z,43.62
2019-05-02T15:28:09.727Z,43.94
2019-05-02T15:30:44.838Z,43.80
2019-05-02T15:33:12.543Z,45.77
2019-05-02T15:36:03.183Z,45.26
2019-05-02T15:38:29.045Z,46.91
2019-05-02T15:40:59.286Z,46.52
2019-05-02T15:43:26.067Z,45.50
2019-05-02T15:45:53.745Z,45.81
2019-05-02T15:48:27.283Z,45.98
2019-05-02T15:50:52.988Z,46.64
2019-05-02T15:53:28.228Z,46.37
2019-05-02T15:55:55.901Z,47.07
2019-05-02T15:58:27.690Z,47.66
2019-05-02T16:01:05.735Z,47.73
2019-05-02T16:03:43.053Z,48.50
2019-05-02T16:06:08.237Z,49.41
2019-05-02T16:08:37.608Z,49.02
2019-05-02T16:11:08.822Z,49.16
2019-05-02T16:13:34.774Z,48.99
2019-05-02T16:16:05.459Z,49.55
2019-05-02T16:18:31.960Z,49.82
2019-05-02T16:21:07.995Z,50.41
2019-05-02T16:23:35.931Z,50.37
2019-05-02T16:26:05.862Z,50.42
2019-05-02T16:28:36.856Z,50.39
2019-05-02T16:31:04.739Z,50.23
2019-05-02T16:33:32.520Z,50.35
2019-05-02T16:36:00.290Z,50.57
2019-05-02T16:38:33.683Z,50.44
2019-05-02T16:40:57.364Z,49.71
2019-05-02T16:43:26.683Z,49.00
2019-05-02T16:45:54.431Z,48.65
2019-05-02T16:48:23.831Z,48.06
2019-05-02T16:50:51.860Z,48.24
2019-05-02T16:53:22.556Z,48.92
2019-05-02T16:55:49.109Z,47.17
2019-05-02T16:58:16.773Z,49.27
2019-05-02T17:00:45.586Z,48.89
2019-05-02T17:03:17.446Z,49.03
2019-05-02T17:05:44.289Z,48.69
2019-05-02T17:08:26.101Z,48.69
2019-05-02T17:10:57.220Z,49.71
2019-05-02T17:13:27.306Z,51.91
2019-05-02T17:15:54.274Z,51.91
2019-05-02T17:18:22.856Z,50.58
2019-05-02T17:20:53.519Z,51.30
2019-05-02T17:23:22.143Z,52.11
2019-05-02T17:25:49.497Z,52.35
2019-05-02T17:28:17.152Z,52.24
2019-05-02T17:30:44.813Z,51.96
2019-05-02T17:33:16.072Z,52.82
2019-05-02T17:35:49.347Z,52.56
2019-05-02T17:38:11.997Z,53.76
2019-05-02T17:40:41.991Z,53.78
2019-05-02T17:43:09.315Z,53.18
2019-05-02T17:45:38.479Z,53.54
2019-05-02T17:48:08.426Z,53.04
2019-05-02T17:50:49.514Z,53.68
2019-05-02T17:53:16.263Z,54.58
2019-05-02T17:55:44.402Z,54.87
2019-05-02T17:58:13.943Z,54.40
2019-05-02T18:00:47.524Z,54.98
2019-05-02T18:03:15.528Z,55.36
2019-05-02T18:05:43.463Z,56.15
2019-05-02T18:08:14.611Z,56.46
2019-05-02T18:10:41.918Z,56.36
2019-05-02T18:13:09.704Z,55.59
2019-05-02T18:15:37.359Z,56.41
2019-05-02T18:18:06.891Z,56.79
2019-05-02T18:20:37.113Z,56.95
2019-05-02T18:23:05.956Z,57.51
2019-05-02T18:25:33.156Z,58.23
2019-05-02T18:28:02.417Z,58.74
2019-05-02T18:30:30.184Z,59.14
2019-05-02T18:33:02.516Z,58.35
2019-05-02T18:35:27.211Z,58.63
2019-05-02T18:37:54.864Z,58.25
2019-05-02T18:40:27.861Z,59.24
2019-05-02T18:42:52.020Z,59.40
2019-05-02T18:45:19.738Z,59.94
2019-05-02T18:47:47.396Z,60.01
2019-05-02T18:50:15.051Z,60.98
2019-05-02T18:52:43.174Z,61.17
2019-05-02T18:55:12.073Z,61.39
2019-05-02T18:57:39.723Z,61.55
2019-05-02T19:00:07.731Z,61.42
2019-05-02T19:02:35.730Z,62.14
2019-05-02T19:05:06.027Z,62.91
2019-05-02T19:07:35.714Z,63.23
2019-05-02T19:10:05.762Z,64.02
2019-05-02T19:12:32.764Z,64.75
2019-05-02T19:15:03.144Z,65.11
2019-05-02T19:17:30.111Z,66.11
2019-05-02T19:19:57.848Z,66.15
2019-05-02T19:22:25.518Z,66.33
2019-05-02T19:24:53.204Z,66.40
2019-05-02T19:27:40.003Z,65.87
2019-05-02T19:30:08.554Z,66.09
2019-05-02T19:32:36.245Z,66.92
2019-05-02T19:35:06.913Z,68.01
2019-05-02T19:37:36.240Z,67.80
2019-05-02T19:40:02.712Z,66.83
2019-05-02T19:42:30.763Z,67.00
2019-05-02T19:45:03.741Z,68.76
2019-05-02T19:47:27.784Z,69.42
2019-05-02T19:49:55.462Z,69.42
2019-05-02T19:52:23.120Z,68.49
2019-05-02T19:54:51.895Z,68.87
2019-05-02T19:57:24.859Z,69.44
2019-05-02T19:59:49.062Z,70.29
2019-05-02T20:02:16.728Z,70.65
2019-05-02T20:04:44.432Z,70.13
2019-05-02T20:07:12.435Z,70.41
2019-05-02T20:09:43.620Z,71.00
2019-05-02T20:12:13.414Z,72.37
2019-05-02T20:14:43.608Z,72.01
2019-05-02T20:17:08.340Z,72.43
2019-05-02T20:19:38.614Z,72.58
2019-05-02T20:22:11.803Z,72.94
2019-05-02T20:24:49.169Z,72.55
2019-05-02T20:27:14.422Z,72.56
2019-05-02T20:29:42.629Z,73.35
2019-05-02T20:32:12.538Z,74.26
2019-05-02T20:34:41.756Z,73.17
2019-05-02T20:37:09.175Z,73.58
2019-05-02T20:39:36.837Z,74.03
2019-05-02T20:42:04.584Z,74.33
2019-05-02T20:44:32.240Z,74.01
2019-05-02T20:46:59.895Z,74.38
2019-05-02T20:49:27.545Z,75.19
2019-05-02T20:51:55.197Z,75.85
2019-05-02T20:54:22.851Z,76.59
2019-05-02T20:56:51.992Z,76.76
2019-05-02T20:59:21.823Z,76.91
2019-05-02T21:01:49.488Z,77.76
2019-05-02T21:04:17.140Z,77.16
2019-05-02T21:06:52.687Z,76.87
2019-05-02T21:09:29.793Z,76.13
2019-05-02T21:12:02.006Z,75.78
2019-05-02T21:14:29.888Z,76.66
2019-05-02T21:16:57.564Z,76.09
2019-05-02T21:19:25.236Z,76.44
2019-05-02T21:21:53.043Z,76.96
2019-05-02T21:24:22.086Z,76.57
2019-05-02T21:26:49.853Z,76.36
2019-05-02T21:29:17.664Z,76.67
2019-05-02T21:31:45.331Z,75.74
2019-05-02T21:34:12.986Z,76.17
2019-05-02T21:36:42.538Z,76.16
2019-05-02T21:39:11.815Z,77.01
2019-05-02T21:41:39.599Z,77.54
2019-05-02T21:44:07.258Z,77.34
2019-05-02T21:46:35.036Z,77.54
2019-05-02T21:49:04.068Z,77.19
2019-05-02T21:51:42.592Z,77.02
2019-05-02T21:54:22.542Z,77.86
2019-05-02T21:56:53.405Z,78.20
2019-05-02T21:59:22.473Z,77.64
2019-05-02T22:01:52.202Z,79.33
2019-05-02T22:04:19.985Z,78.40
2019-05-02T22:06:47.640Z,79.26
2019-05-02T22:09:15.306Z,79.18
2019-05-02T22:11:43.175Z,79.26
2019-05-02T22:14:13.002Z,81.15
2019-05-02T22:16:42.073Z,80.55
2019-05-02T22:19:09.892Z,83.09
2019-05-02T22:21:37.661Z,81.21
2019-05-02T22:24:11.161Z,81.06
2019-05-02T22:26:34.921Z,81.56
2019-05-02T22:29:02.865Z,80.41
2019-05-02T22:31:32.200Z,79.88
2019-05-02T22:34:01.984Z,81.15
2019-05-02T22:36:29.410Z,80.73
2019-05-02T22:39:03.168Z,80.85
2019-05-02T22:41:32.599Z,80.21
2019-05-02T22:44:01.903Z,79.85
2019-05-02T22:46:51.950Z,78.35
2019-05-02T22:49:19.565Z,77.84
2019-05-02T22:51:47.231Z,76.96
2019-05-02T22:54:27.115Z,76.28
2019-05-02T22:56:44.253Z,75.89
2019-05-02T22:59:11.928Z,75.57
2019-05-02T23:01:39.660Z,74.91
2019-05-02T23:04:07.520Z,56.63
2019-05-02T23:06:35.317Z,56.87
2019-05-02T23:09:03.175Z,57.03
2019-05-02T23:11:32.921Z,56.85
2019-05-02T23:14:01.767Z,56.35
2019-05-02T23:16:29.640Z,56.40
2019-05-02T23:18:57.332Z,56.57
2019-05-02T23:21:24.993Z,56.73
2019-05-02T23:23:52.646Z,56.94
2019-05-02T23:26:25.615Z,57.22
2019-05-02T23:28:53.465Z,56.53
2019-05-02T23:31:22.584Z,56.67
2019-05-02T23:33:58.469Z,57.05
2019-05-02T23:36:26.139Z,56.93
2019-05-02T23:38:53.783Z,57.48
2019-05-02T23:41:22.096Z,57.30
2019-05-02T23:43:51.991Z,57.00
2019-05-02T23:46:19.415Z,56.80
2019-05-02T23:48:47.071Z,56.28
2019-05-02T23:51:14.738Z,56.44
2019-05-02T23:53:42.451Z,56.60
2019-05-02T23:56:10.354Z,56.41
2019-05-02T23:58:38.103Z,56.14
